Burton, Illinois
Current Conditions -  °F | °C
As of 8:27 AM on Saturday 25 Oct 2014 (Local Time) from KUIN Reporting Station
Moderate Fog Moderate Fog  
Wind Chill: 12°   Ceiling: 200
Heat Index: 12°   Visibility: 0mi
Dew Point: 12°   Wind: 5mph
Humidity: 97%   Direction: 210°SSW
Pressure: 30.02"   Gusts: NA
Location:  39.9317°N, 91.2953°W
Report Text: KUIN 251327Z AUTO 21004KT M1/4SM FG VV002 12/12 A3002 RMK AO2 T01220117
Loading
Personal Weather Stations






























Interactive Weather Map
Tropical Storm Tracking
New forecast layout! Learn more

10-Day Weather Forecast

Advertisements
Track Severe Weather on mobile